Aérodrome :
LOGIN :

S'inscrire | Disclaimer

   EN    FR    IT 

 










Légende :    VFR   VFR Marginal   IFR   IFR Intensif   IFR Très Intensif
Visi : 
Plafond : 
>= 8 km
>= 3000ft
5 à 8 km
1000 à 3000 ft
1500m à 5 km
500 à 1000 ft
800 à 1500m
200 à 500 ft
< 800m
< 200 ft
Symboles :   Orages  Brouillard  Fortes neiges  Fortes précipitations  Vent > 20 kt
SIGMETs :   Divers  Orages  Givrage  Turbulence  Onde Orograph.  Cendres Volcan.






- Altitude de l'aérodrome : 13 ft
- Code IATA : LYX


EGMD - Lydd

DERNIER METAR :
  • 122050Z AUTO 27010KT 9999 NCD 23/18 Q1013

METARs EXPIRÉS :
  • 122020Z AUTO 21008KT 190V250 9999 FEW027/// 24/18 Q1014
  • 121950Z AUTO 07008KT 9999 NCD 23/19 Q1013
  • 121920Z AUTO 06012KT 9999 NCD 23/18 Q1012
  • 121850Z AUTO 07013KT 9999 NCD 23/18 Q1012
  • 121820Z AUTO 08015KT 9999 NCD 23/18 Q1012

TAF TAF EGMD
Valide du 12 à 21h jusqu'au 13 à 06h UTC


121956Z 1221/1306 08009KT CAVOK
TEMPO 1221/1306 8000
PROB30
TEMPO 1222/1306 3000 +TSRAGS BKN035CB
ATIS : +44 1797 322 422



MET'MAP, la Météo Aéronautique d'un coup d'oeil ! - Copyright ORBIFLY Décembre 2007 - Disclaimer

ORBIFLY MET'MAP TEAM :

Programmation & Développement : Alexandra Zaïnal
Sur une idée originale de : Baudouin d'Aumeries
Assistance à la programmation : Marc-Olivier Méhu
Soutien technique & logistique : Manuel Goepfert

Contact : metmap@orbifly.com




SOURCES & CREDITS :

   NOAA